Map

Track Data

SID SEASON NUMBER BASIN SUBBASIN NAME ISO_TIME NATURE LAT LON WMO_WIND WMO_PRES WMO_AGENCY TRACK_TYPE DIST2LAND LANDFALL IFLAG USA_AGENCY USA_ATCF_ID USA_LAT USA_LON USA_RECORD USA_STATUS USA_WIND USA_PRES USA_SSHS USA_R34_NE USA_R34_SE USA_R34_SW USA_R34_NW USA_R50_NE USA_R50_SE USA_R50_SW USA_R50_NW USA_R64_NE USA_R64_SE USA_R64_SW USA_R64_NW USA_POCI USA_ROCI USA_RMW USA_EYE TOKYO_LAT TOKYO_LON TOKYO_GRADE TOKYO_WIND TOKYO_PRES TOKYO_R50_DIR TOKYO_R50_LONG TOKYO_R50_SHORT TOKYO_R30_DIR TOKYO_R30_LONG TOKYO_R30_SHORT TOKYO_LAND CMA_LAT CMA_LON CMA_CAT CMA_WIND CMA_PRES HKO_LAT HKO_LON HKO_CAT HKO_WIND HKO_PRES NEWDELHI_LAT NEWDELHI_LON NEWDELHI_GRADE NEWDELHI_WIND NEWDELHI_PRES NEWDELHI_CI NEWDELHI_DP NEWDELHI_POCI REUNION_LAT REUNION_LON REUNION_TYPE REUNION_WIND REUNION_PRES REUNION_TNUM REUNION_CI REUNION_RMW REUNION_R34_NE REUNION_R34_SE REUNION_R34_SW REUNION_R34_NW REUNION_R50_NE REUNION_R50_SE REUNION_R50_SW REUNION_R50_NW REUNION_R64_NE REUNION_R64_SE REUNION_R64_SW REUNION_R64_NW BOM_LAT BOM_LON BOM_TYPE BOM_WIND BOM_PRES BOM_TNUM BOM_CI BOM_RMW BOM_R34_NE BOM_R34_SE BOM_R34_SW BOM_R34_NW BOM_R50_NE BOM_R50_SE BOM_R50_SW BOM_R50_NW BOM_R64_NE BOM_R64_SE BOM_R64_SW BOM_R64_NW BOM_ROCI BOM_POCI BOM_EYE BOM_POS_METHOD BOM_PRES_METHOD NADI_LAT NADI_LON NADI_CAT NADI_WIND NADI_PRES WELLINGTON_LAT WELLINGTON_LON WELLINGTON_WIND WELLINGTON_PRES DS824_LAT DS824_LON DS824_STAGE DS824_WIND DS824_PRES TD9636_LAT TD9636_LON TD9636_STAGE TD9636_WIND TD9636_PRES TD9635_LAT TD9635_LON TD9635_WIND TD9635_PRES TD9635_ROCI NEUMANN_LAT NEUMANN_LON NEUMANN_CLASS NEUMANN_WIND NEUMANN_PRES MLC_LAT MLC_LON MLC_CLASS MLC_WIND MLC_PRES USA_GUST BOM_GUST BOM_GUST_PER REUNION_GUST REUNION_GUST_PER USA_SEAHGT USA_SEARAD_NE USA_SEARAD_SE USA_SEARAD_SW USA_SEARAD_NW STORM_SPEED STORM_DIR
1893323N08137 1893 63 WP MM NOT_NAMED 1893-11-18 16:00:00 NR 8.30000 137.200 main 1024 1022 __________O___ -1 8.30000 137.200 3 2 292
1893323N08137 1893 63 WP MM NOT_NAMED 1893-11-18 18:00:00 NR 8.33248 137.123 main 1022 1022 __________P___ -1 8.33248 137.123 3 3 292
1893323N08137 1893 63 WP MM NOT_NAMED 1893-11-18 21:00:00 NR 8.38779 136.981 main 1031 1028 __________P___ -1 8.38779 136.981 3 4 290
1893323N08137 1893 63 WP MM NOT_NAMED 1893-11-19 00:00:00 NR 8.46002 136.768 main 1039 1035 __________P___ -1 8.46002 136.768 3 6 288
1893323N08137 1893 63 WP MM NOT_NAMED 1893-11-19 03:00:00 NR 8.55923 136.441 main 1045 1045 __________P___ -1 8.55923 136.441 3 7 287
1893323N08137 1893 63 WP MM NOT_NAMED 1893-11-19 04:00:00 NR 8.60000 136.300 main 1045 1041 __________O___ -1 8.60000 136.300 4 10 286
1893323N08137 1893 63 WP MM NOT_NAMED 1893-11-19 06:00:00 NR 8.69459 135.964 main 1041 977 __________P___ -1 8.69459 135.964 4 12 286
1893323N08137 1893 63 WP MM NOT_NAMED 1893-11-19 09:00:00 NR 8.86761 135.352 main 978 905 __________P___ -1 8.86761 135.352 4 13 286
1893323N08137 1893 63 WP MM NOT_NAMED 1893-11-19 12:00:00 NR 9.07504 134.659 main 905 823 __________P___ -1 9.07504 134.659 4 15 288
1893323N08137 1893 63 WP MM NOT_NAMED 1893-11-19 15:00:00 NR 9.31387 133.937 main 823 804 __________P___ -1 9.31387 133.937 4 15 289
1893323N08137 1893 63 WP MM NOT_NAMED 1893-11-19 16:00:00 NR 9.40000 133.700 main 804 767 __________O___ -1 9.40000 133.700 4 14 292
1893323N08137 1893 63 WP MM NOT_NAMED 1893-11-19 18:00:00 NR 9.58203 133.275 main 767 702 __________P___ -1 9.58203 133.275 4 14 295
1893323N08137 1893 63 WP MM NOT_NAMED 1893-11-19 21:00:00 NR 9.88064 132.636 main 702 644 __________P___ -1 9.88064 132.636 4 14 296
1893323N08137 1893 63 WP MM NOT_NAMED 1893-11-20 00:00:00 NR 10.1934 131.990 main 644 577 __________P___ -1 10.1934 131.990 4 14 296
1893323N08137 1893 63 WP MM NOT_NAMED 1893-11-20 03:00:00 NR 10.5015 131.327 main 577 559 __________P___ -1 10.5015 131.327 4 15 295
1893323N08137 1893 63 WP MM NOT_NAMED 1893-11-20 04:00:00 NR 10.6000 131.100 main 559 514 __________O___ -1 10.6000 131.100 7 15 293
1893323N08137 1893 63 WP MM NOT_NAMED 1893-11-20 06:00:00 NR 10.7830 130.641 main 514 447 __________P___ -1 10.7830 130.641 7 15 291
1893323N08137 1893 63 WP MM NOT_NAMED 1893-11-20 09:00:00 NR 11.0452 129.935 main 447 372 __________P___ -1 11.0452 129.935 7 15 290
1893323N08137 1893 63 WP MM NOT_NAMED 1893-11-20 12:00:00 NR 11.2926 129.206 main 372 299 __________P___ -1 11.2926 129.206 7 15 288
1893323N08137 1893 63 WP MM NOT_NAMED 1893-11-20 15:00:00 NR 11.5256 128.455 main 299 270 __________P___ -1 11.5256 128.455 7 16 287
1893323N08137 1893 63 WP MM NOT_NAMED 1893-11-20 16:00:00 NR 11.6000 128.200 main 270 215 __________O___ -1 11.6000 128.200 7 17 286
1893323N08137 1893 63 WP MM NOT_NAMED 1893-11-20 18:00:00 NR 11.7610 127.640 main 215 143 __________P___ -1 11.7610 127.640 7 17 286
1893323N08137 1893 63 WP MM NOT_NAMED 1893-11-20 21:00:00 NR 11.9901 126.779 main 143 43 __________P___ -1 11.9901 126.779 7 17 285
1893323N08137 1893 63 WP MM NOT_NAMED 1893-11-21 00:00:00 NR 12.1927 125.949 main 43 0 __________P___ -1 12.1927 125.949 7 16 283
1893323N08137 1893 63 WP MM NOT_NAMED 1893-11-21 03:00:00 NR 12.3562 125.214 main 0 0 __________P___ -1 12.3562 125.214 7 14 283
1893323N08137 1893 63 WP MM NOT_NAMED 1893-11-21 04:00:00 NR 12.4000 125.000 main 0 0 __________O___ -1 12.4000 125.000 7 11 282
1893323N08137 1893 63 WP MM NOT_NAMED 1893-11-21 06:00:00 NR 12.4691 124.660 main 10 0 __________P___ -1 12.4691 124.660 7 9 281
1893323N08137 1893 63 WP MM NOT_NAMED 1893-11-21 09:00:00 NR 12.5358 124.259 main 10 0 __________P___ -1 12.5358 124.259 7 7 278
1893323N08137 1893 63 WP MM NOT_NAMED 1893-11-21 12:00:00 NR 12.5723 123.931 main 10 10 __________P___ -1 12.5723 123.931 7 6 275
1893323N08137 1893 63 WP MM NOT_NAMED 1893-11-21 15:00:00 NR 12.5936 123.614 main 24 15 __________P___ -1 12.5936 123.614 7 6 274
1893323N08137 1893 63 WP MM NOT_NAMED 1893-11-21 16:00:00 NR 12.6000 123.500 main 15 11 __________O___ -1 12.6000 123.500 7 8 274
1893323N08137 1893 63 WP MM NOT_NAMED 1893-11-21 18:00:00 NR 12.6224 123.209 main 15 15 __________P___ -1 12.6224 123.209 7 9 274
1893323N08137 1893 63 WP MM NOT_NAMED 1893-11-21 21:00:00 NR 12.6498 122.754 main 55 55 __________P___ -1 12.6498 122.754 7 9 273
1893323N08137 1893 63 WP MM NOT_NAMED 1893-11-22 00:00:00 NR 12.6722 122.293 main 64 24 __________P___ -1 12.6722 122.293 7 9 273
1893323N08137 1893 63 WP MM NOT_NAMED 1893-11-22 03:00:00 NR 12.6929 121.844 main 24 15 __________P___ -1 12.6929 121.844 7 9 273
1893323N08137 1893 63 WP MM NOT_NAMED 1893-11-22 04:00:00 NR 12.7000 121.700 main 15 0 __________O___ -1 12.7000 121.700 3 8 274
1893323N08137 1893 63 WP MM NOT_NAMED 1893-11-22 06:00:00 NR 12.7190 121.438 main 0 0 __________P___ -1 12.7190 121.438 3 7 274
1893323N08137 1893 63 WP MM NOT_NAMED 1893-11-22 09:00:00 NR 12.7478 121.064 main 0 0 __________P___ -1 12.7478 121.064 3 7 274
1893323N08137 1893 63 WP MM NOT_NAMED 1893-11-22 12:00:00 NR 12.7741 120.700 main 10 10 __________P___ -1 12.7741 120.700 3 7 274
1893323N08137 1893 63 WP MM NOT_NAMED 1893-11-22 15:00:00 NR 12.7949 120.328 main 49 49 __________P___ -1 12.7949 120.328 3 7 273
1893323N08137 1893 63 WP MM NOT_NAMED 1893-11-22 16:00:00 NR 12.8000 120.200 main 55 55 __________O___ -1 12.8000 120.200 4 8 272
1893323N08137 1893 63 WP MM NOT_NAMED 1893-11-22 18:00:00 NR 12.8085 119.910 main 78 78 __________P___ -1 12.8085 119.910 4 9 271
1893323N08137 1893 63 WP MM NOT_NAMED 1893-11-22 21:00:00 NR 12.8149 119.461 main 109 118 __________P___ -1 12.8149 119.461 4 9 270
1893323N08137 1893 63 WP MM NOT_NAMED 1893-11-23 00:00:00 NR 12.8136 119.022 main 156 156 __________P___ -1 12.8136 119.022 4 8 269
1893323N08137 1893 63 WP MM NOT_NAMED 1893-11-23 03:00:00 NR 12.8047 118.621 main 194 194 __________P___ -1 12.8047 118.621 4 8 268
1893323N08137 1893 63 WP MM NOT_NAMED 1893-11-23 04:00:00 NR 12.8000 118.500 main 200 200 __________O___ -1 12.8000 118.500 7 6 269
1893323N08137 1893 63 WP MM NOT_NAMED 1893-11-23 06:00:00 NR 12.7966 118.293 main 212 212 __________P___ -1 12.7966 118.293 7 6 268
1893323N08137 1893 63 WP MM NOT_NAMED 1893-11-23 09:00:00 NR 12.7857 118.028 main 234 234 __________P___ -1 12.7857 118.028 7 5 266
1893323N08137 1893 63 WP MM NOT_NAMED 1893-11-23 12:00:00 NR 12.7621 117.795 main 249 249 __________P___ -1 12.7621 117.795 7 4 262
1893323N08137 1893 63 WP MM NOT_NAMED 1893-11-23 15:00:00 NR 12.7195 117.575 main 258 258 __________P___ -1 12.7195 117.575 7 4 258
1893323N08137 1893 63 WP MM NOT_NAMED 1893-11-23 16:00:00 NR 12.7000 117.500 main 266 266 __________O___ -1 12.7000 117.500 7 5 253
1893323N08137 1893 63 WP MM NOT_NAMED 1893-11-23 18:00:00 NR 12.6522 117.345 main 283 277 __________P___ -1 12.6522 117.345 7 5 250
1893323N08137 1893 63 WP MM NOT_NAMED 1893-11-23 21:00:00 NR 12.5619 117.101 main 295 289 __________P___ -1 12.5619 117.101 7 5 248
1893323N08137 1893 63 WP MM NOT_NAMED 1893-11-24 00:00:00 NR 12.4554 116.847 main 318 313 __________P___ -1 12.4554 116.847 7 6 246
1893323N08137 1893 63 WP MM NOT_NAMED 1893-11-24 03:00:00 NR 12.3395 116.587 main 328 328 __________P___ -1 12.3395 116.587 7 6 245
1893323N08137 1893 63 WP MM NOT_NAMED 1893-11-24 04:00:00 NR 12.3000 116.500 main 339 __________O___ -1 12.3000 116.500 7 6 246

Digital Typhoon Data and Search

About IBTrACS Database

This database is a web-friendly format of International Best Track Archive for Climate Stewardship (IBTrACS), a global best track data archive curated by NOAA dating back to 1842.

Updated: 2021-11-26